Aviation Digital Data Service (ADDS)

Output produced by METARs form (0105 UTC 27 January 2015)
found at http://aviationweather.gov/adds/metars/
 
KRME 262330Z 2700/2724 09008KT P6SM -SHSN OVC040 
     FM270900 36006KT P6SM OVC040 
     FM271400 32010G20KT P6SM -SHSN OVC035 
     TEMPO 2715/2719 2SM -SN OVC025